createdAt,value
2023-03-30T00:01:19.995Z,54.80
2023-03-30T00:06:22.085Z,56.50
2023-03-30T00:08:53.553Z,55.30
2023-03-30T00:26:20.471Z,57.00
2023-03-30T00:31:21.923Z,57.50
2023-03-30T00:33:50.166Z,57.50
2023-03-30T00:36:18.972Z,57.90
2023-03-30T00:38:48.402Z,57.80
2023-03-30T00:41:17.790Z,59.00
2023-03-30T00:44:00.339Z,58.40
2023-03-30T00:46:31.171Z,58.40
2023-03-30T00:49:04.122Z,58.20
2023-03-30T00:51:35.596Z,59.10
2023-03-30T00:54:08.397Z,58.40
2023-03-30T00:56:36.852Z,59.90
2023-03-30T00:59:05.684Z,60.30
2023-03-30T01:01:39.370Z,60.90
2023-03-30T01:04:09.760Z,60.10
2023-03-30T01:06:40.303Z,61.10
2023-03-30T01:09:08.957Z,60.50
2023-03-30T01:11:37.234Z,61.40
2023-03-30T01:14:07.601Z,60.80
2023-03-30T01:16:44.232Z,60.40
2023-03-30T01:19:43.855Z,60.10
2023-03-30T01:22:40.390Z,61.70
2023-03-30T01:25:31.177Z,62.00
2023-03-30T01:28:14.600Z,62.00
2023-03-30T01:31:25.679Z,63.30
2023-03-30T01:34:17.369Z,65.20
2023-03-30T01:37:27.353Z,67.60
2023-03-30T01:40:05.967Z,71.70
2023-03-30T01:42:40.410Z,79.10
2023-03-30T01:45:15.467Z,81.40
2023-03-30T01:47:53.132Z,85.90
2023-03-30T01:50:26.678Z,88.40
2023-03-30T01:52:59.368Z,90.30
2023-03-30T01:58:03.980Z,92.20
2023-03-30T02:03:08.812Z,92.70
2023-03-30T02:05:38.072Z,93.20
2023-03-30T02:08:09.626Z,93.20
2023-03-30T02:10:40.784Z,93.60
2023-03-30T02:13:09.376Z,92.50
2023-03-30T02:15:42.812Z,92.70
2023-03-30T02:18:11.838Z,91.70
2023-03-30T02:20:40.058Z,91.30
2023-03-30T02:23:08.665Z,91.90
2023-03-30T02:25:40.389Z,91.50
2023-03-30T02:28:09.393Z,91.00
2023-03-30T02:30:41.144Z,92.10
2023-03-30T02:33:15.877Z,91.90
2023-03-30T02:36:08.320Z,92.10
2023-03-30T02:38:54.466Z,91.60
2023-03-30T02:41:49.441Z,91.10
2023-03-30T02:44:25.313Z,92.40
2023-03-30T02:47:03.285Z,92.40
2023-03-30T02:49:50.717Z,92.20
2023-03-30T02:52:36.935Z,93.20
2023-03-30T02:55:15.060Z,91.80
2023-03-30T02:57:55.831Z,92.30
2023-03-30T03:00:29.602Z,92.50
2023-03-30T03:03:03.550Z,93.10
2023-03-30T03:05:33.947Z,94.40
2023-03-30T03:08:02.104Z,95.10
2023-03-30T03:10:30.281Z,94.90
2023-03-30T03:13:10.247Z,96.10
2023-03-30T03:16:18.463Z,96.40
2023-03-30T03:18:46.647Z,97.00
2023-03-30T03:21:39.792Z,96.80
2023-03-30T03:27:12.922Z,97.20
2023-03-30T03:29:54.801Z,97.20
2023-03-30T03:36:00.282Z,97.80
2023-03-30T03:38:34.515Z,97.40
2023-03-30T03:41:05.881Z,97.20
2023-03-30T03:43:34.436Z,97.30
2023-03-30T03:46:56.058Z,97.10
2023-03-30T03:49:41.683Z,97.10
2023-03-30T03:52:12.761Z,97.50
2023-03-30T03:58:07.461Z,97.40
2023-03-30T04:00:38.869Z,97.00
2023-03-30T04:03:16.411Z,97.10
2023-03-30T04:09:24.848Z,96.60
2023-03-30T04:18:36.395Z,97.30
2023-03-30T04:21:07.515Z,98.40
2023-03-30T04:31:10.517Z,99.90
2023-03-30T04:36:19.082Z,99.90
2023-03-30T18:47:59.681Z,47.50
2023-03-30T18:50:32.924Z,47.10
2023-03-30T18:53:02.808Z,65.70
2023-03-30T18:55:31.569Z,71.00
2023-03-30T18:57:59.723Z,71.30
2023-03-30T19:00:30.044Z,71.20
2023-03-30T19:02:59.152Z,70.60
2023-03-30T19:05:29.326Z,70.10
2023-03-30T19:07:58.604Z,69.60
2023-03-30T19:10:29.852Z,70.10
2023-03-30T19:12:59.175Z,70.20
2023-03-30T19:15:29.794Z,69.80
2023-03-30T19:17:58.562Z,69.00
2023-03-30T19:20:28.790Z,68.70
2023-03-30T19:22:56.910Z,66.60
2023-03-30T19:25:28.505Z,66.10
2023-03-30T19:28:02.523Z,65.20
2023-03-30T19:30:34.379Z,64.10
2023-03-30T19:33:06.990Z,63.50
2023-03-30T19:35:35.750Z,63.90
2023-03-30T19:38:04.128Z,64.20
2023-03-30T19:40:33.597Z,71.20
2023-03-30T19:45:31.772Z,83.60
2023-03-30T19:47:59.949Z,88.30
2023-03-30T19:50:30.131Z,89.30
2023-03-30T19:52:59.485Z,90.30
2023-03-30T19:55:28.039Z,89.50
2023-03-30T19:57:57.426Z,89.70
2023-03-30T20:00:25.647Z,90.60
2023-03-30T20:02:56.530Z,90.10
2023-03-30T20:05:26.058Z,91.60
2023-03-30T20:07:54.391Z,91.70
2023-03-30T20:10:24.629Z,92.20
2023-03-30T20:12:53.667Z,92.30
2023-03-30T20:15:24.902Z,91.60
2023-03-30T20:17:56.378Z,91.30
2023-03-30T20:20:26.166Z,90.90
2023-03-30T20:22:56.472Z,91.70
2023-03-30T20:25:25.633Z,91.90
2023-03-30T20:27:54.111Z,92.40
2023-03-30T20:30:23.643Z,91.60
2023-03-30T20:33:04.413Z,91.40
2023-03-30T20:35:37.126Z,90.80
2023-03-30T20:38:05.780Z,91.50
2023-03-30T20:40:34.109Z,91.70
2023-03-30T20:43:03.286Z,91.50
2023-03-30T20:45:34.537Z,90.90
2023-03-30T20:48:22.623Z,90.30
2023-03-30T20:50:50.770Z,89.90
2023-03-30T20:53:19.381Z,88.90
2023-03-30T20:55:48.442Z,87.60
2023-03-30T20:58:16.660Z,85.80
2023-03-30T21:00:47.410Z,86.50
2023-03-30T21:03:15.728Z,86.60
2023-03-30T21:05:43.807Z,84.40
2023-03-30T21:08:11.920Z,82.80
2023-03-30T21:10:42.155Z,81.70
2023-03-30T21:13:10.973Z,81.30
2023-03-30T21:15:39.071Z,79.40
2023-03-30T21:18:08.559Z,78.60
2023-03-30T21:20:36.704Z,76.20
2023-03-30T21:23:04.813Z,74.90
2023-03-30T21:25:32.975Z,75.60
2023-03-30T21:28:01.471Z,74.20
2023-03-30T21:30:29.542Z,73.90
2023-03-30T21:32:57.655Z,73.90
2023-03-30T21:35:27.223Z,72.40
2023-03-30T21:37:55.418Z,75.20
2023-03-30T21:40:23.824Z,75.00
2023-03-30T21:42:51.906Z,75.30
2023-03-30T21:45:20.624Z,75.10
2023-03-30T21:47:48.724Z,72.50
2023-03-30T21:50:17.043Z,71.70
2023-03-30T21:52:46.481Z,70.60
2023-03-30T21:55:14.514Z,69.90
2023-03-30T21:57:42.573Z,70.30
2023-03-30T22:00:12.417Z,70.40
2023-03-30T22:02:40.588Z,71.60
2023-03-30T22:05:09.145Z,69.60
2023-03-30T22:07:37.258Z,70.00
2023-03-30T22:10:07.805Z,70.60
2023-03-30T22:12:36.261Z,69.00
2023-03-30T22:15:04.653Z,68.90
2023-03-30T22:17:41.519Z,68.60
2023-03-30T22:20:11.431Z,68.40
2023-03-30T22:22:39.825Z,68.40
2023-03-30T22:25:10.285Z,68.50
2023-03-30T22:27:38.629Z,68.50
2023-03-30T22:30:08.267Z,68.60
2023-03-30T22:32:36.416Z,68.80
2023-03-30T22:35:04.646Z,69.10
2023-03-30T22:37:32.699Z,70.00
2023-03-30T22:40:00.752Z,69.70
2023-03-30T22:42:30.325Z,70.00
2023-03-30T22:44:58.625Z,69.60
2023-03-30T22:47:27.103Z,71.40
2023-03-30T22:49:55.174Z,74.00
2023-03-30T22:52:23.260Z,74.50
2023-03-30T22:54:51.331Z,75.90
2023-03-30T22:57:19.454Z,77.10
2023-03-30T22:59:48.907Z,77.90
2023-03-30T23:02:17.172Z,78.10
2023-03-30T23:04:48.856Z,78.60
2023-03-30T23:07:17.468Z,79.10
2023-03-30T23:09:47.446Z,80.40
2023-03-30T23:12:15.938Z,81.40
2023-03-30T23:14:44.641Z,81.30
2023-03-30T23:17:14.621Z,81.90
2023-03-30T23:19:45.671Z,81.50
2023-03-30T23:22:14.041Z,81.30
2023-03-30T23:24:42.099Z,82.20
2023-03-30T23:27:10.196Z,82.20
2023-03-30T23:29:38.221Z,82.10
2023-03-30T23:32:07.202Z,83.00
2023-03-30T23:34:36.714Z,85.80
2023-03-30T23:37:05.990Z,87.30
2023-03-30T23:39:34.058Z,87.10
2023-03-30T23:42:02.222Z,87.10
2023-03-30T23:44:30.888Z,88.50
2023-03-30T23:46:59.271Z,88.80
2023-03-30T23:49:27.458Z,89.40
2023-03-30T23:51:57.081Z,87.90
2023-03-30T23:54:25.353Z,88.80
2023-03-30T23:56:57.572Z,89.00
2023-03-30T23:59:26.335Z,88.20
